createdAt,value
2023-05-11T00:02:01.606Z,83.10
2023-05-11T00:04:28.780Z,83.10
2023-05-11T00:06:56.566Z,83.20
2023-05-11T00:09:23.633Z,83.10
2023-05-11T00:11:53.075Z,83.20
2023-05-11T00:14:20.525Z,83.30
2023-05-11T00:16:47.606Z,83.30
2023-05-11T00:19:14.620Z,83.30
2023-05-11T00:21:41.733Z,83.50
2023-05-11T00:24:09.082Z,83.50
2023-05-11T00:26:36.123Z,83.90
2023-05-11T00:29:03.215Z,84.00
2023-05-11T00:31:30.631Z,84.10
2023-05-11T00:33:57.790Z,84.10
2023-05-11T00:36:24.956Z,84.30
2023-05-11T00:38:52.976Z,84.70
2023-05-11T00:41:20.017Z,84.60
2023-05-11T00:43:47.155Z,84.50
2023-05-11T00:46:14.308Z,84.50
2023-05-11T00:48:41.467Z,84.80
2023-05-11T00:51:08.779Z,84.60
2023-05-11T00:53:35.909Z,84.50
2023-05-11T00:56:04.364Z,84.80
2023-05-11T00:58:32.496Z,84.70
2023-05-11T01:00:59.474Z,84.20
2023-05-11T01:03:26.777Z,84.40
2023-05-11T01:06:44.819Z,84.60
2023-05-11T01:09:40.692Z,84.90
2023-05-11T01:12:22.676Z,85.00
2023-05-11T01:15:21.866Z,84.90
2023-05-11T01:18:07.300Z,85.20
2023-05-11T01:20:35.014Z,84.60
2023-05-11T01:23:08.174Z,85.00
2023-05-11T01:25:41.154Z,84.90
2023-05-11T01:28:33.676Z,84.80
2023-05-11T01:31:10.232Z,84.90
2023-05-11T01:33:43.884Z,84.80
2023-05-11T01:36:12.836Z,85.30
2023-05-11T01:38:44.395Z,85.00
2023-05-11T01:41:18.411Z,84.80
2023-05-11T01:43:53.632Z,85.40
2023-05-11T01:46:25.227Z,85.50
2023-05-11T01:48:54.920Z,85.10
2023-05-11T01:51:24.000Z,85.30
2023-05-11T01:53:51.634Z,85.30
2023-05-11T01:56:21.943Z,85.20
2023-05-11T01:58:51.130Z,85.70
2023-05-11T02:01:19.542Z,85.80
2023-05-11T02:03:48.377Z,85.70
2023-05-11T02:06:18.120Z,85.90
2023-05-11T02:08:46.915Z,85.00
2023-05-11T02:11:15.708Z,85.80
2023-05-11T02:13:45.923Z,85.90
2023-05-11T02:16:14.946Z,86.40
2023-05-11T02:18:43.200Z,86.00
2023-05-11T02:21:11.067Z,86.30
2023-05-11T02:23:39.251Z,87.20
2023-05-11T02:26:08.536Z,86.40
2023-05-11T02:28:36.249Z,86.50
2023-05-11T02:31:08.184Z,86.50
2023-05-11T02:33:37.909Z,86.70
2023-05-11T02:36:06.754Z,86.30
2023-05-11T02:38:35.480Z,86.60
2023-05-11T02:41:11.853Z,86.70
2023-05-11T02:43:44.517Z,87.10
2023-05-11T02:46:17.658Z,87.00
2023-05-11T02:48:49.809Z,86.50
2023-05-11T02:51:18.763Z,86.40
2023-05-11T02:53:46.933Z,86.90
2023-05-11T02:56:14.294Z,86.90
2023-05-11T02:58:41.388Z,86.90
2023-05-11T03:01:08.599Z,86.90
2023-05-11T03:03:35.690Z,86.80
2023-05-11T03:06:02.604Z,87.10
2023-05-11T03:08:29.548Z,87.20
2023-05-11T03:10:58.921Z,87.40
2023-05-11T03:13:27.152Z,87.50
2023-05-11T03:15:55.460Z,87.40
2023-05-11T03:18:23.531Z,86.80
2023-05-11T03:20:51.333Z,87.40
2023-05-11T03:23:21.522Z,87.40
2023-05-11T03:25:48.970Z,87.40
2023-05-11T03:28:17.603Z,87.30
2023-05-11T03:30:46.142Z,87.70
2023-05-11T03:33:13.115Z,87.40
2023-05-11T03:35:42.173Z,87.00
2023-05-11T03:38:11.908Z,87.40
2023-05-11T03:40:42.016Z,87.60
2023-05-11T03:43:16.615Z,87.20
2023-05-11T03:45:44.911Z,87.70
2023-05-11T03:48:14.394Z,87.50
2023-05-11T03:50:41.689Z,87.20
2023-05-11T03:53:09.041Z,87.40
2023-05-11T03:55:36.039Z,87.20
2023-05-11T03:58:09.226Z,87.20
2023-05-11T04:00:42.672Z,87.10
2023-05-11T04:03:10.432Z,86.70
2023-05-11T04:05:37.486Z,86.70
2023-05-11T04:08:05.038Z,86.50
2023-05-11T04:10:31.950Z,86.70
2023-05-11T04:12:58.968Z,87.00
2023-05-11T04:15:25.909Z,86.70
2023-05-11T04:17:52.841Z,86.70
2023-05-11T04:20:19.950Z,86.50
2023-05-11T04:22:46.979Z,86.70
2023-05-11T04:25:14.758Z,86.80
2023-05-11T04:27:41.648Z,86.60
2023-05-11T04:30:09.549Z,86.50
2023-05-11T04:32:36.669Z,86.50
2023-05-11T04:35:04.055Z,86.40
2023-05-11T04:37:31.082Z,86.20
2023-05-11T04:39:58.378Z,86.00
2023-05-11T04:42:25.260Z,86.20
2023-05-11T04:44:55.376Z,86.00
2023-05-11T04:47:22.263Z,86.00
2023-05-11T04:49:49.237Z,85.90
2023-05-11T04:52:16.398Z,86.00
2023-05-11T04:54:43.402Z,85.30
2023-05-11T04:57:10.432Z,85.30
2023-05-11T04:59:37.575Z,85.50
2023-05-11T05:02:04.717Z,85.20
2023-05-11T05:04:32.976Z,85.00
2023-05-11T05:07:01.769Z,84.90
2023-05-11T05:09:28.661Z,85.10
2023-05-11T05:11:55.598Z,84.80
2023-05-11T05:14:22.485Z,85.10
2023-05-11T05:16:49.451Z,85.10
2023-05-11T05:19:16.474Z,85.00
2023-05-11T05:21:43.581Z,85.00
2023-05-11T05:24:12.229Z,85.30
2023-05-11T05:26:39.162Z,85.30
2023-05-11T05:29:07.083Z,85.20
2023-05-11T05:31:34.105Z,83.80
2023-05-11T05:34:01.116Z,84.40
2023-05-11T05:36:27.998Z,84.70
2023-05-11T05:38:54.909Z,82.50
2023-05-11T05:41:23.198Z,83.70
2023-05-11T05:43:50.265Z,83.40
2023-05-11T05:46:17.491Z,82.90
2023-05-11T05:48:44.418Z,82.90
2023-05-11T05:51:11.406Z,82.70
2023-05-11T05:53:38.290Z,82.40
2023-05-11T05:56:05.704Z,82.20
2023-05-11T05:58:32.610Z,82.70
2023-05-11T06:01:00.254Z,83.30
2023-05-11T06:03:29.200Z,82.90
2023-05-11T06:05:56.719Z,82.30
2023-05-11T06:08:23.863Z,81.70
2023-05-11T06:10:50.745Z,81.70
2023-05-11T06:13:17.903Z,82.20
2023-05-11T06:15:44.876Z,82.40
2023-05-11T06:18:11.909Z,82.00
2023-05-11T06:20:39.013Z,82.40
2023-05-11T06:23:06.115Z,81.50
2023-05-11T06:25:36.324Z,82.20
2023-05-11T06:28:03.362Z,80.80
2023-05-11T06:30:31.434Z,81.30
2023-05-11T06:32:58.416Z,81.60
2023-05-11T06:35:25.553Z,81.80
2023-05-11T06:37:52.500Z,81.10
2023-05-11T06:40:19.680Z,81.40
2023-05-11T06:42:46.889Z,81.20
2023-05-11T06:45:13.966Z,81.70
2023-05-11T06:47:40.970Z,81.90
2023-05-11T06:50:08.216Z,83.00
2023-05-11T06:52:36.085Z,79.90
2023-05-11T06:55:03.016Z,81.90
2023-05-11T06:57:30.027Z,81.20
2023-05-11T06:59:57.006Z,81.70
2023-05-11T07:02:23.842Z,81.40
2023-05-11T07:04:50.875Z,81.30
2023-05-11T07:07:17.822Z,81.80
2023-05-11T07:09:44.711Z,81.60
2023-05-11T07:12:11.803Z,81.30
2023-05-11T07:14:38.795Z,80.80
2023-05-11T07:17:05.825Z,80.20
2023-05-11T07:19:33.037Z,80.90
2023-05-11T07:22:01.061Z,81.20
2023-05-11T07:24:28.130Z,80.80
2023-05-11T07:26:55.848Z,80.10
2023-05-11T07:29:22.778Z,79.60
2023-05-11T07:31:49.696Z,81.20
2023-05-11T07:34:16.712Z,78.90
2023-05-11T07:36:43.796Z,78.80
2023-05-11T07:39:10.991Z,78.50
2023-05-11T07:41:38.038Z,78.00
2023-05-11T07:44:05.755Z,79.10
2023-05-11T07:46:32.700Z,78.50
2023-05-11T07:49:14.013Z,79.90
2023-05-11T07:51:42.630Z,80.20
2023-05-11T07:54:09.690Z,79.50
2023-05-11T07:56:36.660Z,76.80
2023-05-11T07:59:03.514Z,76.80
2023-05-11T08:01:30.457Z,77.10
2023-05-11T08:03:57.369Z,78.30
2023-05-11T08:06:24.571Z,79.10
2023-05-11T08:08:51.540Z,78.50
2023-05-11T08:11:18.480Z,79.00
2023-05-11T08:13:45.463Z,77.90
2023-05-11T08:16:12.467Z,76.60
2023-05-11T08:18:39.610Z,76.60
2023-05-11T08:21:07.709Z,79.90
2023-05-11T08:23:34.668Z,77.90
2023-05-11T08:26:01.537Z,76.80
2023-05-11T08:28:28.374Z,78.40
2023-05-11T08:30:59.209Z,77.80
2023-05-11T08:33:37.496Z,77.80
2023-05-11T08:36:06.644Z,77.20
2023-05-11T08:38:35.088Z,77.60
2023-05-11T08:41:03.013Z,76.50
2023-05-11T08:43:30.203Z,77.40
2023-05-11T08:46:04.397Z,75.90
2023-05-11T08:48:31.999Z,75.60
2023-05-11T08:50:59.873Z,74.10
2023-05-11T08:53:27.013Z,74.50
2023-05-11T08:55:57.954Z,72.40
2023-05-11T08:58:25.322Z,75.90
2023-05-11T09:00:52.361Z,73.10
2023-05-11T09:03:20.121Z,74.50
2023-05-11T09:05:47.506Z,74.40
2023-05-11T09:08:15.867Z,74.20
2023-05-11T09:10:43.658Z,73.40
2023-05-11T09:13:11.045Z,74.20
2023-05-11T09:15:38.448Z,74.20
2023-05-11T09:18:05.837Z,73.90
2023-05-11T09:20:33.788Z,73.70
2023-05-11T09:23:01.366Z,73.40
2023-05-11T09:25:33.307Z,72.90
2023-05-11T09:28:00.911Z,73.00
2023-05-11T09:30:28.374Z,73.20
2023-05-11T09:32:59.759Z,66.20
2023-05-11T09:35:29.099Z,66.80
2023-05-11T09:38:10.979Z,66.60
2023-05-11T09:40:58.223Z,64.10
2023-05-11T09:43:27.293Z,66.80
2023-05-11T09:46:01.728Z,67.00
2023-05-11T09:48:31.626Z,66.20
2023-05-11T09:51:06.798Z,66.50
2023-05-11T09:53:37.798Z,66.40
2023-05-11T09:56:05.021Z,65.40
2023-05-11T09:58:57.569Z,66.40
2023-05-11T10:01:34.959Z,66.80
2023-05-11T10:04:21.323Z,66.10
2023-05-11T10:06:50.386Z,63.70
2023-05-11T10:09:18.770Z,66.60
2023-05-11T10:11:46.786Z,65.60
2023-05-11T10:14:14.581Z,65.40
2023-05-11T10:16:43.285Z,64.60
2023-05-11T10:19:11.463Z,65.80
2023-05-11T10:21:38.838Z,67.50
2023-05-11T10:24:06.706Z,67.20
2023-05-11T10:26:33.699Z,68.60
2023-05-11T10:29:01.567Z,65.00
2023-05-11T10:31:29.967Z,66.10
2023-05-11T10:33:57.650Z,65.30
2023-05-11T10:36:26.235Z,66.10
2023-05-11T10:38:54.021Z,63.20
2023-05-11T10:41:39.685Z,65.00
2023-05-11T10:44:33.154Z,65.90
2023-05-11T10:47:22.180Z,65.60
2023-05-11T10:50:22.050Z,65.70
2023-05-11T10:53:13.444Z,67.20
2023-05-11T10:55:44.166Z,68.40
2023-05-11T10:58:27.989Z,67.20
2023-05-11T11:01:26.521Z,62.10
2023-05-11T11:04:05.301Z,65.60
2023-05-11T11:06:34.964Z,65.80
2023-05-11T11:09:05.365Z,61.90
2023-05-11T11:11:41.618Z,62.60
2023-05-11T11:14:10.453Z,65.30
2023-05-11T11:16:40.023Z,62.60
2023-05-11T11:19:28.815Z,63.40
2023-05-11T11:21:56.832Z,62.80
2023-05-11T11:24:38.936Z,63.30
2023-05-11T11:27:06.810Z,65.30
2023-05-11T11:29:38.397Z,66.40
2023-05-11T11:32:26.576Z,67.50
2023-05-11T11:34:53.728Z,67.20
2023-05-11T11:37:22.349Z,66.70
2023-05-11T11:39:50.785Z,63.90
2023-05-11T11:42:39.677Z,64.90
2023-05-11T11:45:25.364Z,66.00
2023-05-11T11:48:15.275Z,62.40
2023-05-11T11:50:47.946Z,63.70
2023-05-11T11:53:37.973Z,65.00
2023-05-11T11:56:07.617Z,62.50
2023-05-11T11:58:44.532Z,63.00
2023-05-11T12:01:16.273Z,64.30
2023-05-11T12:03:45.253Z,63.10
2023-05-11T12:06:12.876Z,64.80
2023-05-11T12:08:41.307Z,64.50
2023-05-11T12:11:08.516Z,63.50
2023-05-11T12:13:36.070Z,64.80
2023-05-11T12:16:16.932Z,64.60
2023-05-11T12:18:54.278Z,65.20
2023-05-11T12:21:22.495Z,61.40
2023-05-11T12:24:05.464Z,61.40
2023-05-11T12:26:34.481Z,62.10
2023-05-11T12:29:13.251Z,64.80
2023-05-11T12:31:45.699Z,61.60
2023-05-11T12:34:20.687Z,64.40
2023-05-11T12:36:49.450Z,64.70
2023-05-11T12:39:26.613Z,63.00
2023-05-11T12:41:56.154Z,64.30
2023-05-11T12:44:25.527Z,63.90
2023-05-11T12:46:52.991Z,64.70
2023-05-11T12:49:29.427Z,65.60
2023-05-11T12:51:59.091Z,64.50
2023-05-11T12:54:40.560Z,64.80
2023-05-11T12:57:09.278Z,60.70
2023-05-11T12:59:40.013Z,60.90
2023-05-11T13:02:12.229Z,60.50
2023-05-11T13:04:41.705Z,63.00
2023-05-11T13:07:09.646Z,63.50
2023-05-11T13:09:36.944Z,63.40
2023-05-11T13:12:19.448Z,62.70
2023-05-11T13:14:51.160Z,62.70
2023-05-11T13:17:31.592Z,64.00
2023-05-11T13:20:22.202Z,63.40
2023-05-11T13:22:50.181Z,65.50
2023-05-11T13:25:21.033Z,63.70
2023-05-11T13:27:48.239Z,62.70
2023-05-11T13:30:15.308Z,65.50
2023-05-11T13:32:42.288Z,62.60
2023-05-11T13:35:09.615Z,62.10
2023-05-11T13:37:36.660Z,62.60
2023-05-11T13:40:04.922Z,64.50
2023-05-11T13:42:32.516Z,62.20
2023-05-11T13:44:59.447Z,61.20
2023-05-11T13:47:26.581Z,63.20
2023-05-11T13:49:55.109Z,62.50
2023-05-11T13:52:22.519Z,62.50
2023-05-11T13:54:49.596Z,63.00
2023-05-11T13:57:16.573Z,63.20
2023-05-11T13:59:43.593Z,61.20
2023-05-11T14:02:11.613Z,61.70
2023-05-11T14:04:40.107Z,61.10
2023-05-11T14:07:07.307Z,63.30
2023-05-11T14:09:34.452Z,63.80
2023-05-11T14:12:01.573Z,63.40
2023-05-11T14:14:28.540Z,61.80
2023-05-11T14:16:56.313Z,63.40
2023-05-11T14:19:23.220Z,63.70
2023-05-11T14:21:50.182Z,62.20
2023-05-11T14:24:17.037Z,62.30
2023-05-11T14:26:43.981Z,62.80
2023-05-11T14:29:11.180Z,61.50
2023-05-11T14:31:38.698Z,63.40
2023-05-11T14:34:05.929Z,61.90
2023-05-11T14:36:32.883Z,62.50
2023-05-11T14:38:59.921Z,61.10
2023-05-11T14:41:26.833Z,64.20
2023-05-11T14:43:53.648Z,62.50
2023-05-11T14:46:21.676Z,61.90
2023-05-11T14:48:48.556Z,64.90
2023-05-11T14:51:15.474Z,64.90
2023-05-11T14:53:42.358Z,65.10
2023-05-11T14:56:09.560Z,66.50
2023-05-11T14:58:36.491Z,62.60
2023-05-11T15:01:04.985Z,65.00
2023-05-11T15:03:31.931Z,63.00
2023-05-11T15:05:59.802Z,64.20
2023-05-11T15:08:30.300Z,64.70
2023-05-11T15:10:57.822Z,64.70
2023-05-11T15:13:24.906Z,64.90
2023-05-11T15:15:52.346Z,63.80
2023-05-11T15:18:19.532Z,65.10
2023-05-11T15:20:46.910Z,65.80
2023-05-11T15:23:17.113Z,66.10
2023-05-11T15:25:46.868Z,66.20
2023-05-11T15:28:14.139Z,65.80
2023-05-11T15:30:42.416Z,66.00
2023-05-11T15:33:10.512Z,64.10
2023-05-11T15:35:38.005Z,65.80
2023-05-11T15:38:05.566Z,65.80
2023-05-11T15:40:33.057Z,66.70
2023-05-11T15:43:00.686Z,65.80
2023-05-11T15:45:27.862Z,66.20
2023-05-11T15:47:55.020Z,66.30
2023-05-11T15:50:22.590Z,67.50
2023-05-11T15:52:49.675Z,66.00
2023-05-11T15:55:16.600Z,66.60
2023-05-11T15:57:43.470Z,67.50
2023-05-11T16:00:11.570Z,65.40
2023-05-11T16:02:38.805Z,66.70
2023-05-11T16:05:06.400Z,66.40
2023-05-11T16:07:33.700Z,65.80
2023-05-11T16:10:01.028Z,66.40
2023-05-11T16:12:27.918Z,68.50
2023-05-11T16:14:54.803Z,68.10
2023-05-11T16:17:21.701Z,68.00
2023-05-11T16:19:48.747Z,69.00
2023-05-11T16:22:16.150Z,68.90
2023-05-11T16:24:43.096Z,68.50
2023-05-11T16:27:10.089Z,69.30
2023-05-11T16:29:37.102Z,69.20
2023-05-11T16:32:04.201Z,69.70
2023-05-11T16:34:32.737Z,70.40
2023-05-11T16:36:59.616Z,70.80
2023-05-11T16:39:27.365Z,71.20
2023-05-11T16:41:54.315Z,71.60
2023-05-11T16:44:21.223Z,70.80
2023-05-11T16:46:49.215Z,71.70
2023-05-11T16:49:16.443Z,72.00
2023-05-11T16:51:43.533Z,72.00
2023-05-11T16:54:10.851Z,72.50
2023-05-11T16:56:37.905Z,72.30
2023-05-11T16:59:04.855Z,72.80
2023-05-11T17:01:32.468Z,72.80
2023-05-11T17:03:59.435Z,73.20
2023-05-11T17:06:27.585Z,73.00
2023-05-11T17:08:55.033Z,72.90
2023-05-11T17:11:22.072Z,73.50
2023-05-11T17:13:48.928Z,74.20
2023-05-11T17:16:16.024Z,74.00
2023-05-11T17:18:43.103Z,73.80
2023-05-11T17:21:10.540Z,74.70
2023-05-11T17:23:37.572Z,74.30
2023-05-11T17:26:11.958Z,74.00
2023-05-11T17:28:39.503Z,74.80
2023-05-11T17:31:13.919Z,75.20
2023-05-11T17:33:41.679Z,76.20
2023-05-11T17:36:09.744Z,75.50
2023-05-11T17:38:36.999Z,75.80
2023-05-11T17:41:07.733Z,75.60
2023-05-11T17:43:36.489Z,75.70
2023-05-11T17:46:04.432Z,76.10
2023-05-11T17:48:32.246Z,76.20
2023-05-11T17:50:59.423Z,76.40
2023-05-11T17:53:27.344Z,76.80
2023-05-11T17:55:54.490Z,76.80
2023-05-11T17:58:21.518Z,77.10
2023-05-11T18:00:49.510Z,76.80
2023-05-11T18:03:17.154Z,77.10
2023-05-11T18:08:14.310Z,78.00
2023-05-11T18:10:41.242Z,77.80
2023-05-11T18:13:08.943Z,78.10
2023-05-11T18:15:35.904Z,78.30
2023-05-11T18:18:03.485Z,78.60
2023-05-11T18:20:30.899Z,79.20
2023-05-11T18:22:58.202Z,79.00
2023-05-11T18:25:25.219Z,79.10
2023-05-11T18:27:52.277Z,79.30
2023-05-11T18:30:19.508Z,79.80
2023-05-11T18:32:46.725Z,79.80
2023-05-11T18:35:14.287Z,80.00
2023-05-11T18:37:41.131Z,80.20
2023-05-11T18:40:08.935Z,80.50
2023-05-11T18:42:35.887Z,80.60
2023-05-11T18:45:04.700Z,80.90
2023-05-11T18:47:34.987Z,81.20
2023-05-11T18:50:02.972Z,82.30
2023-05-11T18:52:30.380Z,82.10
2023-05-11T18:54:58.302Z,82.60
2023-05-11T18:57:25.223Z,82.30
2023-05-11T18:59:52.535Z,82.20
2023-05-11T19:02:19.482Z,82.60
2023-05-11T19:04:46.503Z,82.80
2023-05-11T19:07:13.828Z,83.10
2023-05-11T19:09:40.712Z,83.10
2023-05-11T19:12:08.114Z,83.70
2023-05-11T19:14:35.194Z,84.00
2023-05-11T19:17:04.028Z,84.10
2023-05-11T19:19:31.247Z,84.50
2023-05-11T19:21:59.367Z,84.80
2023-05-11T19:24:26.586Z,85.00
2023-05-11T19:27:06.000Z,85.40
2023-05-11T19:29:35.049Z,85.50
2023-05-11T19:32:02.218Z,86.10
2023-05-11T19:34:29.413Z,86.00
2023-05-11T19:36:56.372Z,86.30
2023-05-11T19:39:23.279Z,87.10
2023-05-11T19:41:50.303Z,86.90
2023-05-11T19:44:17.227Z,87.70
2023-05-11T19:46:47.281Z,87.40
2023-05-11T19:49:15.440Z,87.40
2023-05-11T19:51:42.833Z,86.70
2023-05-11T19:54:10.877Z,86.00
2023-05-11T19:56:38.210Z,85.90
2023-05-11T19:59:05.104Z,85.40
2023-05-11T20:01:32.107Z,85.40
2023-05-11T20:03:59.438Z,85.10
2023-05-11T20:06:26.808Z,85.20
2023-05-11T20:08:54.293Z,85.20
2023-05-11T20:11:22.231Z,85.10
2023-05-11T20:13:49.485Z,85.00
2023-05-11T20:16:16.711Z,85.00
2023-05-11T20:18:43.668Z,85.00
2023-05-11T20:21:10.774Z,85.00
2023-05-11T20:23:39.374Z,84.50
2023-05-11T20:26:06.987Z,84.20
2023-05-11T20:28:33.915Z,84.00
2023-05-11T20:31:00.839Z,83.70
2023-05-11T20:35:58.448Z,84.50
2023-05-11T20:38:25.546Z,84.60
2023-05-11T20:40:58.461Z,84.90
2023-05-11T20:43:28.021Z,83.70
2023-05-11T20:45:55.247Z,83.50
2023-05-11T20:48:32.361Z,83.90
2023-05-11T20:51:05.877Z,82.00
2023-05-11T20:53:32.882Z,82.30
2023-05-11T20:56:01.145Z,83.00
2023-05-11T20:58:29.765Z,83.20
2023-05-11T21:00:56.860Z,83.50
2023-05-11T21:03:27.669Z,83.90
2023-05-11T21:05:54.656Z,83.30
2023-05-11T21:08:21.750Z,82.90
2023-05-11T21:10:48.638Z,83.10
2023-05-11T21:13:15.819Z,82.00
2023-05-11T21:15:42.928Z,81.90
2023-05-11T21:18:10.045Z,81.80
2023-05-11T21:20:36.981Z,81.50
2023-05-11T21:23:04.086Z,81.50
2023-05-11T21:25:31.013Z,81.40
2023-05-11T21:27:57.888Z,81.60
2023-05-11T21:30:24.743Z,82.30
2023-05-11T21:32:51.660Z,82.30
2023-05-11T21:35:18.863Z,82.10
2023-05-11T21:37:49.544Z,82.30
2023-05-11T21:40:18.035Z,82.50
2023-05-11T21:42:45.309Z,83.30
2023-05-11T21:45:12.431Z,83.70
2023-05-11T21:47:39.855Z,83.80
2023-05-11T21:50:08.724Z,83.90
2023-05-11T21:52:36.877Z,85.20
2023-05-11T21:55:04.350Z,83.60
2023-05-11T21:57:31.292Z,83.70
2023-05-11T21:59:58.206Z,84.00
2023-05-11T22:02:25.249Z,83.60
2023-05-11T22:04:52.176Z,83.70
2023-05-11T22:07:20.164Z,84.10
2023-05-11T22:09:47.167Z,83.50
2023-05-11T22:12:14.070Z,84.40
2023-05-11T22:14:41.412Z,84.80
2023-05-11T22:17:08.580Z,85.00
2023-05-11T22:19:35.710Z,85.40
2023-05-11T22:22:02.653Z,85.50
2023-05-11T22:24:29.733Z,85.90
2023-05-11T22:26:56.822Z,86.10
2023-05-11T22:29:23.818Z,86.40
2023-05-11T22:31:50.736Z,86.60
2023-05-11T22:34:21.389Z,87.00
2023-05-11T22:36:48.311Z,87.50
2023-05-11T22:39:15.452Z,88.00
2023-05-11T22:41:42.361Z,88.30
2023-05-11T22:44:09.497Z,88.60
2023-05-11T22:46:36.606Z,88.70
2023-05-11T22:49:03.500Z,88.80
2023-05-11T22:51:30.454Z,88.80
2023-05-11T22:53:57.322Z,89.10
2023-05-11T22:56:24.336Z,89.20
2023-05-11T22:58:52.685Z,89.20
2023-05-11T23:01:20.484Z,89.20
2023-05-11T23:03:47.608Z,89.40
2023-05-11T23:06:14.607Z,89.50
2023-05-11T23:08:41.588Z,90.00
2023-05-11T23:11:08.714Z,89.70
2023-05-11T23:13:35.757Z,89.80
2023-05-11T23:16:06.196Z,89.90
2023-05-11T23:18:33.439Z,90.00
2023-05-11T23:21:00.789Z,90.00
2023-05-11T23:23:27.995Z,90.00
2023-05-11T23:25:54.902Z,90.20
2023-05-11T23:28:21.784Z,90.00
2023-05-11T23:30:48.868Z,90.20
2023-05-11T23:33:15.792Z,90.20
2023-05-11T23:35:42.920Z,90.20
2023-05-11T23:38:09.953Z,90.20
2023-05-11T23:40:36.853Z,90.20
2023-05-11T23:43:03.755Z,90.20
2023-05-11T23:45:30.907Z,90.20
2023-05-11T23:47:57.900Z,90.30
2023-05-11T23:50:24.790Z,90.40
2023-05-11T23:52:51.614Z,90.40
2023-05-11T23:55:18.704Z,90.50
2023-05-11T23:57:45.824Z,90.50
